Malaysia Virtual Airlines Airport Information Service

Amritsar Air Force Station

ICAO: VIAR Country: India
Latitude: 31.7096 Longitude: 74.7973
Latest Arrival : (-) Latest Departure : (-)


WX CaptureLIVE
Data provided by noaa.gov | Fetched at 05:21:28

METAR : VIAR 290500Z 00000KT 1800 R34/2000 MIFG NSC 18/16 Q1022 NOSIG

TAF : VIAR 282300Z 2900/3006 00000KT 0600 MIFG BECMG 2904/2906 29006KT 2000 FU HZ BECMG 2908/2910 2800 FU HZ BECMG 2917/2919 00000KT 1800 BR NSC BECMG 3000/3002 0800 MIFG BECMG 3004/3006 32004KT 2000 FU HZ FEW100


Runway Data for VIAR
Data provided by openaviationdata.com

Runway ID Mag Var Hdg Length Elevation Surface ILS Freq ILS Id ILS Slope
16 1 157° 10807 ft 714 ft Asphalt -- -- --
34 1 337° 10807 ft 714 ft Asphalt 109.5 IAMR 3

Amritsar Air Force Station, India
Use only for reference purposes



Not for navigational purposes.